Rechercher aéroport 
image banner adimage banner adimage banner ad
image banner ad

0PA9 - Carson

Situé à Perkasie, United States

ICAO - 0PA9, IATA -

Données fournies par Airmate  

Information générale

Coordonnées: N40°20'0" W75°12'59"
Élévation : 415 feet MSL.
Variation magnétique : -12° East
Voir autres Aéroports à Pennsylvania

Données opérationnelles

Special qualification required
Heure actuelle UTC:
Heure actuelle locale:
Météo à : KDYL - Doylestown ( 8 km )
METAR: KDYL 150554Z AUTO 00000KT 10SM -RA OVC050 18/17 A2980 RMK AO2 RAB50 SLP084 P0000 60001 T01830167 10233 20178 53001
Voir NOTAMs / SUP AIP / TFR affectant cet aéroport [VIEW]
Fréquences de communication: [VIEW]

Pistes:

Coordonnées de l'aéroport

Adresse: Perkasie United States

Vue satellite de 0PA9